sensor_id;sensor_type;location;lat;lon;timestamp;pressure;altitude;pressure_sealevel;temperature;humidity
10097;BME280;5087;42.662;23.466;2023-12-07T00:02:05;95050.97;;;3.55;100.00
10097;BME280;5087;42.662;23.466;2023-12-07T00:04:32;95069.84;;;3.79;100.00
10097;BME280;5087;42.662;23.466;2023-12-07T00:06:59;95049.66;;;3.87;100.00
10097;BME280;5087;42.662;23.466;2023-12-07T00:09:26;95081.69;;;4.07;100.00
10097;BME280;5087;42.662;23.466;2023-12-07T00:11:53;95071.00;;;4.02;100.00
10097;BME280;5087;42.662;23.466;2023-12-07T00:14:22;95073.50;;;4.23;100.00
10097;BME280;5087;42.662;23.466;2023-12-07T00:16:50;95038.72;;;4.07;100.00
10097;BME280;5087;42.662;23.466;2023-12-07T00:19:21;95069.72;;;4.24;100.00
10097;BME280;5087;42.662;23.466;2023-12-07T00:21:48;95063.88;;;4.17;100.00
10097;BME280;5087;42.662;23.466;2023-12-07T00:24:17;95071.28;;;4.30;100.00
10097;BME280;5087;42.662;23.466;2023-12-07T00:26:45;95078.09;;;4.47;100.00
10097;BME280;5087;42.662;23.466;2023-12-07T00:29:12;95056.63;;;4.41;100.00
10097;BME280;5087;42.662;23.466;2023-12-07T00:31:41;95057.75;;;4.40;100.00
10097;BME280;5087;42.662;23.466;2023-12-07T00:34:09;95060.69;;;4.39;100.00
10097;BME280;5087;42.662;23.466;2023-12-07T00:36:37;95065.75;;;4.46;100.00
10097;BME280;5087;42.662;23.466;2023-12-07T00:39:06;95058.28;;;4.37;100.00
10097;BME280;5087;42.662;23.466;2023-12-07T00:41:34;95065.75;;;4.46;100.00
10097;BME280;5087;42.662;23.466;2023-12-07T00:44:01;95066.28;;;4.42;100.00
10097;BME280;5087;42.662;23.466;2023-12-07T00:46:29;95080.81;;;4.41;100.00
10097;BME280;5087;42.662;23.466;2023-12-07T00:48:58;95039.19;;;4.15;100.00
10097;BME280;5087;42.662;23.466;2023-12-07T00:51:25;95072.34;;;4.29;100.00
10097;BME280;5087;42.662;23.466;2023-12-07T00:53:52;95058.38;;;4.27;100.00
10097;BME280;5087;42.662;23.466;2023-12-07T00:56:20;95075.13;;;4.48;100.00
10097;BME280;5087;42.662;23.466;2023-12-07T00:58:47;95074.19;;;4.58;100.00
10097;BME280;5087;42.662;23.466;2023-12-07T01:01:14;95071.56;;;4.53;100.00
10097;BME280;5087;42.662;23.466;2023-12-07T01:03:42;95061.28;;;4.60;100.00
10097;BME280;5087;42.662;23.466;2023-12-07T01:06:11;95068.72;;;4.68;100.00
10097;BME280;5087;42.662;23.466;2023-12-07T01:08:38;95058.53;;;4.41;100.00
10097;BME280;5087;42.662;23.466;2023-12-07T01:11:06;95056.91;;;4.40;100.00
10097;BME280;5087;42.662;23.466;2023-12-07T01:13:33;95060.97;;;4.62;100.00
10097;BME280;5087;42.662;23.466;2023-12-07T01:16:01;95069.41;;;4.79;100.00
10097;BME280;5087;42.662;23.466;2023-12-07T01:18:29;95037.25;;;4.44;100.00
10097;BME280;5087;42.662;23.466;2023-12-07T01:20:56;95024.78;;;4.30;100.00
10097;BME280;5087;42.662;23.466;2023-12-07T01:23:25;95042.16;;;4.37;100.00
10097;BME280;5087;42.662;23.466;2023-12-07T01:25:52;95046.53;;;4.04;100.00
10097;BME280;5087;42.662;23.466;2023-12-07T01:28:19;95064.56;;;3.98;100.00
10097;BME280;5087;42.662;23.466;2023-12-07T01:30:48;95045.34;;;3.86;100.00
10097;BME280;5087;42.662;23.466;2023-12-07T01:33:17;95026.56;;;3.86;100.00
10097;BME280;5087;42.662;23.466;2023-12-07T01:35:44;95059.06;;;4.14;100.00
10097;BME280;5087;42.662;23.466;2023-12-07T01:38:12;95011.56;;;4.09;100.00
10097;BME280;5087;42.662;23.466;2023-12-07T01:40:41;95031.59;;;4.22;100.00
10097;BME280;5087;42.662;23.466;2023-12-07T01:43:09;95049.31;;;4.47;100.00
10097;BME280;5087;42.662;23.466;2023-12-07T01:45:43;95041.47;;;4.26;100.00
10097;BME280;5087;42.662;23.466;2023-12-07T01:48:10;95044.09;;;4.07;100.00
10097;BME280;5087;42.662;23.466;2023-12-07T01:50:37;95017.56;;;3.66;100.00
10097;BME280;5087;42.662;23.466;2023-12-07T01:53:04;95017.19;;;3.48;100.00
10097;BME280;5087;42.662;23.466;2023-12-07T01:55:33;95009.75;;;3.40;100.00
10097;BME280;5087;42.662;23.466;2023-12-07T01:58:02;95039.53;;;3.73;100.00
10097;BME280;5087;42.662;23.466;2023-12-07T02:00:30;95045.34;;;3.86;100.00
10097;BME280;5087;42.662;23.466;2023-12-07T02:02:57;95042.78;;;3.70;100.00
10097;BME280;5087;42.662;23.466;2023-12-07T02:05:26;95048.91;;;3.76;100.00
10097;BME280;5087;42.662;23.466;2023-12-07T02:07:54;95045.06;;;3.87;100.00
10097;BME280;5087;42.662;23.466;2023-12-07T02:10:21;95049.59;;;3.57;100.00
10097;BME280;5087;42.662;23.466;2023-12-07T02:12:49;95025.88;;;3.35;100.00
10097;BME280;5087;42.662;23.466;2023-12-07T02:15:18;95004.34;;;3.45;100.00
10097;BME280;5087;42.662;23.466;2023-12-07T02:18:03;95044.91;;;3.73;100.00
10097;BME280;5087;42.662;23.466;2023-12-07T02:20:39;95052.34;;;3.82;100.00
10097;BME280;5087;42.662;23.466;2023-12-07T02:23:09;95051.09;;;3.74;100.00
10097;BME280;5087;42.662;23.466;2023-12-07T02:29:08;94995.16;;;3.52;100.00
10097;BME280;5087;42.662;23.466;2023-12-07T02:31:35;95015.59;;;3.77;100.00
10097;BME280;5087;42.662;23.466;2023-12-07T02:34:04;95012.59;;;3.84;100.00
10097;BME280;5087;42.662;23.466;2023-12-07T02:36:32;95034.50;;;4.25;100.00
10097;BME280;5087;42.662;23.466;2023-12-07T02:39:02;95015.06;;;4.09;100.00
10097;BME280;5087;42.662;23.466;2023-12-07T02:41:31;95010.03;;;4.27;100.00
10097;BME280;5087;42.662;23.466;2023-12-07T02:43:59;95030.81;;;4.16;100.00
10097;BME280;5087;42.662;23.466;2023-12-07T02:46:28;95028.38;;;4.20;100.00
10097;BME280;5087;42.662;23.466;2023-12-07T02:48:58;95041.44;;;4.02;100.00
10097;BME280;5087;42.662;23.466;2023-12-07T02:51:25;95033.66;;;3.71;100.00
10097;BME280;5087;42.662;23.466;2023-12-07T02:53:53;95055.75;;;3.63;100.00
10097;BME280;5087;42.662;23.466;2023-12-07T02:56:20;95023.13;;;3.45;100.00
10097;BME280;5087;42.662;23.466;2023-12-07T02:58:47;95045.84;;;3.53;100.00
10097;BME280;5087;42.662;23.466;2023-12-07T03:01:17;95047.56;;;3.44;100.00
10097;BME280;5087;42.662;23.466;2023-12-07T03:03:47;95037.41;;;3.36;100.00
10097;BME280;5087;42.662;23.466;2023-12-07T03:06:14;95043.03;;;3.34;100.00
10097;BME280;5087;42.662;23.466;2023-12-07T03:08:43;95048.66;;;3.38;100.00
10097;BME280;5087;42.662;23.466;2023-12-07T03:11:10;95055.19;;;3.26;100.00
10097;BME280;5087;42.662;23.466;2023-12-07T03:13:37;95023.38;;;3.04;100.00
10097;BME280;5087;42.662;23.466;2023-12-07T03:16:07;95041.56;;;3.12;100.00
10097;BME280;5087;42.662;23.466;2023-12-07T03:18:36;95039.41;;;3.14;100.00
10097;BME280;5087;42.662;23.466;2023-12-07T03:21:05;95050.09;;;3.25;100.00
10097;BME280;5087;42.662;23.466;2023-12-07T03:23:32;95054.47;;;3.10;100.00
10097;BME280;5087;42.662;23.466;2023-12-07T03:26:00;95040.81;;;3.01;100.00
10097;BME280;5087;42.662;23.466;2023-12-07T03:28:27;95039.47;;;3.04;100.00
10097;BME280;5087;42.662;23.466;2023-12-07T03:30:56;95014.88;;;2.92;100.00
10097;BME280;5087;42.662;23.466;2023-12-07T03:33:24;95006.69;;;3.12;100.00
10097;BME280;5087;42.662;23.466;2023-12-07T03:35:52;95070.44;;;3.71;100.00
10097;BME280;5087;42.662;23.466;2023-12-07T03:38:20;95038.25;;;3.66;100.00
10097;BME280;5087;42.662;23.466;2023-12-07T03:40:49;95030.34;;;3.79;100.00
10097;BME280;5087;42.662;23.466;2023-12-07T03:43:19;95052.91;;;4.13;100.00
10097;BME280;5087;42.662;23.466;2023-12-07T03:45:46;95040.72;;;3.91;100.00
10097;BME280;5087;42.662;23.466;2023-12-07T03:48:14;95054.59;;;4.04;100.00
10097;BME280;5087;42.662;23.466;2023-12-07T03:50:41;95067.28;;;4.22;100.00
10097;BME280;5087;42.662;23.466;2023-12-07T03:53:09;95063.84;;;4.46;100.00
10097;BME280;5087;42.662;23.466;2023-12-07T03:55:38;95063.13;;;4.40;100.00
10097;BME280;5087;42.662;23.466;2023-12-07T03:58:05;95067.50;;;4.31;100.00
10097;BME280;5087;42.662;23.466;2023-12-07T04:00:33;95058.53;;;4.41;100.00
10097;BME280;5087;42.662;23.466;2023-12-07T04:03:00;95053.84;;;4.52;100.00
10097;BME280;5087;42.662;23.466;2023-12-07T04:05:27;95053.84;;;4.52;100.00
10097;BME280;5087;42.662;23.466;2023-12-07T04:07:55;95033.72;;;4.25;100.00
10097;BME280;5087;42.662;23.466;2023-12-07T04:10:22;95045.31;;;4.44;100.00
10097;BME280;5087;42.662;23.466;2023-12-07T04:12:54;95020.47;;;4.04;100.00
10097;BME280;5087;42.662;23.466;2023-12-07T04:15:23;95048.25;;;4.19;100.00
10097;BME280;5087;42.662;23.466;2023-12-07T04:17:51;95048.22;;;4.24;100.00
10097;BME280;5087;42.662;23.466;2023-12-07T04:20:20;95021.00;;;4.06;100.00
10097;BME280;5087;42.662;23.466;2023-12-07T04:22:47;95038.94;;;4.11;100.00
10097;BME280;5087;42.662;23.466;2023-12-07T04:25:15;95035.59;;;3.95;100.00
10097;BME280;5087;42.662;23.466;2023-12-07T04:27:42;95059.91;;;4.09;100.00
10097;BME280;5087;42.662;23.466;2023-12-07T04:30:12;95057.31;;;3.99;100.00
10097;BME280;5087;42.662;23.466;2023-12-07T04:32:39;95054.13;;;3.96;100.00
10097;BME280;5087;42.662;23.466;2023-12-07T04:35:07;95087.78;;;4.18;100.00
10097;BME280;5087;42.662;23.466;2023-12-07T04:37:35;95051.69;;;3.95;100.00
10097;BME280;5087;42.662;23.466;2023-12-07T04:40:02;95091.66;;;4.02;100.00
10097;BME280;5087;42.662;23.466;2023-12-07T04:42:30;95079.72;;;3.84;100.00
10097;BME280;5087;42.662;23.466;2023-12-07T04:44:59;95075.59;;;3.96;100.00
10097;BME280;5087;42.662;23.466;2023-12-07T04:47:28;95061.22;;;3.82;100.00
10097;BME280;5087;42.662;23.466;2023-12-07T04:49:55;95072.22;;;3.86;100.00
10097;BME280;5087;42.662;23.466;2023-12-07T04:52:22;95091.97;;;4.00;100.00
10097;BME280;5087;42.662;23.466;2023-12-07T04:54:52;95074.19;;;4.04;100.00
10097;BME280;5087;42.662;23.466;2023-12-07T04:57:20;95093.38;;;4.22;100.00
10097;BME280;5087;42.662;23.466;2023-12-07T04:59:47;95089.63;;;4.23;100.00
10097;BME280;5087;42.662;23.466;2023-12-07T05:02:14;95076.31;;;4.07;100.00
10097;BME280;5087;42.662;23.466;2023-12-07T05:04:43;95057.47;;;4.12;100.00
10097;BME280;5087;42.662;23.466;2023-12-07T05:07:11;95082.34;;;4.23;100.00
10097;BME280;5087;42.662;23.466;2023-12-07T05:09:38;95075.38;;;3.93;100.00
10097;BME280;5087;42.662;23.466;2023-12-07T05:12:06;95106.03;;;3.87;100.00
10097;BME280;5087;42.662;23.466;2023-12-07T05:14:33;95094.84;;;3.74;100.00
10097;BME280;5087;42.662;23.466;2023-12-07T05:17:01;95094.63;;;3.66;100.00
10097;BME280;5087;42.662;23.466;2023-12-07T05:19:29;95096.56;;;3.94;100.00
10097;BME280;5087;42.662;23.466;2023-12-07T05:21:58;95095.78;;;3.94;100.00
10097;BME280;5087;42.662;23.466;2023-12-07T05:24:26;95085.94;;;4.14;100.00
10097;BME280;5087;42.662;23.466;2023-12-07T05:26:53;95101.97;;;4.24;100.00
10097;BME280;5087;42.662;23.466;2023-12-07T05:29:21;95085.47;;;4.06;100.00
10097;BME280;5087;42.662;23.466;2023-12-07T05:31:49;95077.53;;;3.56;100.00
10097;BME280;5087;42.662;23.466;2023-12-07T05:34:16;95107.84;;;3.57;100.00
10097;BME280;5087;42.662;23.466;2023-12-07T05:36:44;95096.69;;;3.34;100.00
10097;BME280;5087;42.662;23.466;2023-12-07T05:39:14;95110.69;;;3.31;100.00
10097;BME280;5087;42.662;23.466;2023-12-07T05:41:43;95121.84;;;2.93;100.00
10097;BME280;5087;42.662;23.466;2023-12-07T05:44:12;95110.19;;;2.58;100.00
10097;BME280;5087;42.662;23.466;2023-12-07T05:46:40;95117.72;;;2.41;100.00
10097;BME280;5087;42.662;23.466;2023-12-07T05:49:10;95093.63;;;2.15;100.00
10097;BME280;5087;42.662;23.466;2023-12-07T05:51:40;95129.78;;;2.33;100.00
10097;BME280;5087;42.662;23.466;2023-12-07T05:54:08;95085.84;;;2.18;100.00
10097;BME280;5087;42.662;23.466;2023-12-07T05:56:37;95122.47;;;2.64;100.00
10097;BME280;5087;42.662;23.466;2023-12-07T05:59:06;95125.44;;;2.58;100.00
10097;BME280;5087;42.662;23.466;2023-12-07T06:01:34;95104.25;;;2.61;100.00
10097;BME280;5087;42.662;23.466;2023-12-07T06:04:01;95126.41;;;2.88;100.00
10097;BME280;5087;42.662;23.466;2023-12-07T06:06:28;95123.22;;;2.80;100.00
10097;BME280;5087;42.662;23.466;2023-12-07T06:08:56;95110.16;;;2.53;100.00
10097;BME280;5087;42.662;23.466;2023-12-07T06:11:23;95138.81;;;2.68;100.00
10097;BME280;5087;42.662;23.466;2023-12-07T06:13:53;95129.63;;;2.95;100.00
10097;BME280;5087;42.662;23.466;2023-12-07T06:16:23;95114.53;;;3.14;100.00
10097;BME280;5087;42.662;23.466;2023-12-07T06:18:53;95119.47;;;3.42;100.00
10097;BME280;5087;42.662;23.466;2023-12-07T06:21:21;95140.66;;;3.48;100.00
10097;BME280;5087;42.662;23.466;2023-12-07T06:23:48;95138.06;;;3.28;100.00
10097;BME280;5087;42.662;23.466;2023-12-07T06:26:15;95119.69;;;2.95;100.00
10097;BME280;5087;42.662;23.466;2023-12-07T06:28:44;95134.16;;;3.05;100.00
10097;BME280;5087;42.662;23.466;2023-12-07T06:31:14;95137.88;;;3.09;100.00
10097;BME280;5087;42.662;23.466;2023-12-07T06:33:46;95126.22;;;2.74;100.00
10097;BME280;5087;42.662;23.466;2023-12-07T06:36:18;95127.03;;;2.69;100.00
10097;BME280;5087;42.662;23.466;2023-12-07T06:38:45;95109.91;;;2.49;100.00
10097;BME280;5087;42.662;23.466;2023-12-07T06:41:13;95144.72;;;2.65;100.00
10097;BME280;5087;42.662;23.466;2023-12-07T06:43:41;95151.69;;;2.66;100.00
10097;BME280;5087;42.662;23.466;2023-12-07T06:46:10;95152.50;;;2.56;100.00
10097;BME280;5087;42.662;23.466;2023-12-07T06:48:39;95128.16;;;2.47;100.00
10097;BME280;5087;42.662;23.466;2023-12-07T06:51:07;95160.25;;;2.78;100.00
10097;BME280;5087;42.662;23.466;2023-12-07T06:53:34;95160.81;;;2.55;100.00
10097;BME280;5087;42.662;23.466;2023-12-07T06:56:01;95137.28;;;2.41;100.00
10097;BME280;5087;42.662;23.466;2023-12-07T06:58:29;95142.06;;;2.60;100.00
10097;BME280;5087;42.662;23.466;2023-12-07T07:00:56;95154.09;;;2.73;100.00
10097;BME280;5087;42.662;23.466;2023-12-07T07:06:24;95163.94;;;2.88;100.00
10097;BME280;5087;42.662;23.466;2023-12-07T07:08:51;95148.66;;;2.98;100.00
10097;BME280;5087;42.662;23.466;2023-12-07T07:11:18;95152.59;;;3.11;100.00
10097;BME280;5087;42.662;23.466;2023-12-07T07:13:45;95156.97;;;3.02;100.00
10097;BME280;5087;42.662;23.466;2023-12-07T07:16:13;95159.06;;;3.05;100.00
10097;BME280;5087;42.662;23.466;2023-12-07T07:18:40;95155.84;;;3.03;100.00
10097;BME280;5087;42.662;23.466;2023-12-07T07:21:07;95152.88;;;3.15;100.00
10097;BME280;5087;42.662;23.466;2023-12-07T07:23:37;95165.19;;;3.16;100.00
10097;BME280;5087;42.662;23.466;2023-12-07T07:26:04;95164.19;;;3.01;100.00
10097;BME280;5087;42.662;23.466;2023-12-07T07:28:31;95171.63;;;3.15;100.00
10097;BME280;5087;42.662;23.466;2023-12-07T07:30:59;95163.53;;;3.36;100.00
10097;BME280;5087;42.662;23.466;2023-12-07T07:33:26;95158.41;;;3.39;100.00
10097;BME280;5087;42.662;23.466;2023-12-07T07:35:53;95152.00;;;3.30;100.00
10097;BME280;5087;42.662;23.466;2023-12-07T07:38:21;95142.34;;;3.29;100.00
10097;BME280;5087;42.662;23.466;2023-12-07T07:40:52;95169.66;;;3.46;100.00
10097;BME280;5087;42.662;23.466;2023-12-07T07:43:19;95163.16;;;3.53;100.00
10097;BME280;5087;42.662;23.466;2023-12-07T07:45:49;95164.44;;;3.66;100.00
10097;BME280;5087;42.662;23.466;2023-12-07T07:48:19;95167.53;;;4.23;100.00
10097;BME280;5087;42.662;23.466;2023-12-07T07:50:47;95156.19;;;4.31;100.00
10097;BME280;5087;42.662;23.466;2023-12-07T07:53:14;95165.91;;;4.56;100.00
10097;BME280;5087;42.662;23.466;2023-12-07T07:55:42;95155.22;;;4.51;100.00
10097;BME280;5087;42.662;23.466;2023-12-07T07:58:10;95156.53;;;4.49;100.00
10097;BME280;5087;42.662;23.466;2023-12-07T08:00:37;95160.47;;;4.62;100.00
10097;BME280;5087;42.662;23.466;2023-12-07T08:03:05;95164.44;;;4.69;100.00
10097;BME280;5087;42.662;23.466;2023-12-07T08:05:32;95177.22;;;4.83;100.00
10097;BME280;5087;42.662;23.466;2023-12-07T08:07:59;95176.59;;;4.91;100.00
10097;BME280;5087;42.662;23.466;2023-12-07T08:10:26;95182.13;;;4.75;100.00
10097;BME280;5087;42.662;23.466;2023-12-07T08:12:53;95155.06;;;4.67;100.00
10097;BME280;5087;42.662;23.466;2023-12-07T08:15:22;95196.09;;;4.78;100.00
10097;BME280;5087;42.662;23.466;2023-12-07T08:17:49;95186.19;;;4.73;100.00
10097;BME280;5087;42.662;23.466;2023-12-07T08:20:16;95181.75;;;4.58;100.00
10097;BME280;5087;42.662;23.466;2023-12-07T08:22:44;95190.56;;;4.64;100.00
10097;BME280;5087;42.662;23.466;2023-12-07T08:25:11;95167.97;;;4.35;100.00
10097;BME280;5087;42.662;23.466;2023-12-07T08:27:38;95192.25;;;4.54;100.00
10097;BME280;5087;42.662;23.466;2023-12-07T08:30:06;95191.41;;;4.59;100.00
10097;BME280;5087;42.662;23.466;2023-12-07T08:32:36;95186.16;;;4.43;100.00
10097;BME280;5087;42.662;23.466;2023-12-07T08:35:04;95194.56;;;4.66;100.00
10097;BME280;5087;42.662;23.466;2023-12-07T08:37:32;95196.03;;;4.53;100.00
10097;BME280;5087;42.662;23.466;2023-12-07T08:40:00;95201.16;;;4.55;100.00
10097;BME280;5087;42.662;23.466;2023-12-07T08:42:27;95184.78;;;4.46;100.00
10097;BME280;5087;42.662;23.466;2023-12-07T08:44:56;95207.19;;;4.36;100.00
10097;BME280;5087;42.662;23.466;2023-12-07T08:47:25;95200.38;;;4.49;100.00
10097;BME280;5087;42.662;23.466;2023-12-07T08:49:54;95192.38;;;4.44;100.00
10097;BME280;5087;42.662;23.466;2023-12-07T08:52:21;95213.50;;;4.56;100.00
10097;BME280;5087;42.662;23.466;2023-12-07T08:54:49;95209.94;;;4.26;100.00
10097;BME280;5087;42.662;23.466;2023-12-07T08:57:18;95198.94;;;4.27;100.00
10097;BME280;5087;42.662;23.466;2023-12-07T08:59:45;95189.16;;;4.07;100.00
10097;BME280;5087;42.662;23.466;2023-12-07T09:02:13;95214.19;;;3.98;100.00
10097;BME280;5087;42.662;23.466;2023-12-07T09:04:40;95197.34;;;3.82;100.00
10097;BME280;5087;42.662;23.466;2023-12-07T09:07:09;95188.84;;;3.69;100.00
10097;BME280;5087;42.662;23.466;2023-12-07T09:09:41;95206.44;;;3.91;100.00
10097;BME280;5087;42.662;23.466;2023-12-07T09:12:12;95198.44;;;3.80;100.00
10097;BME280;5087;42.662;23.466;2023-12-07T09:14:39;95209.72;;;3.83;100.00
10097;BME280;5087;42.662;23.466;2023-12-07T09:17:07;95205.97;;;3.78;100.00
10097;BME280;5087;42.662;23.466;2023-12-07T09:19:34;95205.94;;;3.84;100.00
10097;BME280;5087;42.662;23.466;2023-12-07T09:22:01;95207.72;;;3.99;100.00
10097;BME280;5087;42.662;23.466;2023-12-07T09:24:29;95172.41;;;3.81;100.00
10097;BME280;5087;42.662;23.466;2023-12-07T09:26:56;95203.97;;;4.00;100.00
10097;BME280;5087;42.662;23.466;2023-12-07T09:29:23;95192.41;;;3.99;100.00
10097;BME280;5087;42.662;23.466;2023-12-07T09:31:54;95152.88;;;3.70;100.00
10097;BME280;5087;42.662;23.466;2023-12-07T09:34:21;95201.00;;;4.01;100.00
10097;BME280;5087;42.662;23.466;2023-12-07T09:36:48;95202.34;;;4.04;100.00
10097;BME280;5087;42.662;23.466;2023-12-07T09:39:16;95197.50;;;4.01;100.00
10097;BME280;5087;42.662;23.466;2023-12-07T09:41:46;95201.50;;;4.03;100.00
10097;BME280;5087;42.662;23.466;2023-12-07T09:44:13;95199.94;;;3.97;100.00
10097;BME280;5087;42.662;23.466;2023-12-07T09:46:40;95149.94;;;3.61;100.00
10097;BME280;5087;42.662;23.466;2023-12-07T09:49:08;95178.88;;;3.75;100.00
10097;BME280;5087;42.662;23.466;2023-12-07T09:51:36;95171.69;;;3.65;100.00
10097;BME280;5087;42.662;23.466;2023-12-07T09:54:04;95184.50;;;3.73;100.00
10097;BME280;5087;42.662;23.466;2023-12-07T09:56:31;95158.47;;;3.19;100.00
10097;BME280;5087;42.662;23.466;2023-12-07T09:59:00;95205.56;;;3.51;100.00
10097;BME280;5087;42.662;23.466;2023-12-07T10:01:31;95201.78;;;3.57;100.00
10097;BME280;5087;42.662;23.466;2023-12-07T10:04:19;95194.22;;;3.64;100.00
10097;BME280;5087;42.662;23.466;2023-12-07T10:06:48;95196.50;;;3.36;100.00
10097;BME280;5087;42.662;23.466;2023-12-07T10:09:16;95192.78;;;3.27;100.00
10097;BME280;5087;42.662;23.466;2023-12-07T10:11:45;95214.22;;;3.37;100.00
10097;BME280;5087;42.662;23.466;2023-12-07T10:14:14;95197.84;;;3.39;100.00
10097;BME280;5087;42.662;23.466;2023-12-07T10:16:52;95131.28;;;2.85;100.00
10097;BME280;5087;42.662;23.466;2023-12-07T10:19:21;95207.28;;;3.26;100.00
10097;BME280;5087;42.662;23.466;2023-12-07T10:21:49;95206.22;;;3.22;100.00
10097;BME280;5087;42.662;23.466;2023-12-07T10:24:19;95166.56;;;3.13;100.00
10097;BME280;5087;42.662;23.466;2023-12-07T10:26:49;95149.16;;;3.00;100.00
10097;BME280;5087;42.662;23.466;2023-12-07T10:29:20;95174.09;;;3.06;100.00
10097;BME280;5087;42.662;23.466;2023-12-07T10:31:49;95143.03;;;2.95;100.00
10097;BME280;5087;42.662;23.466;2023-12-07T10:34:19;95173.31;;;3.06;100.00
10097;BME280;5087;42.662;23.466;2023-12-07T10:36:47;95182.66;;;3.13;100.00
10097;BME280;5087;42.662;23.466;2023-12-07T10:39:15;95196.63;;;3.05;100.00
10097;BME280;5087;42.662;23.466;2023-12-07T10:41:43;95193.41;;;3.03;100.00
10097;BME280;5087;42.662;23.466;2023-12-07T10:44:14;95193.97;;;2.90;100.00
10097;BME280;5087;42.662;23.466;2023-12-07T10:46:48;95204.19;;;2.82;100.00
10097;BME280;5087;42.662;23.466;2023-12-07T10:49:19;95197.19;;;2.92;100.00
10097;BME280;5087;42.662;23.466;2023-12-07T10:51:52;95198.28;;;2.80;100.00
10097;BME280;5087;42.662;23.466;2023-12-07T10:54:22;95194.53;;;2.81;100.00
10097;BME280;5087;42.662;23.466;2023-12-07T10:56:53;95196.16;;;2.72;100.00
10097;BME280;5087;42.662;23.466;2023-12-07T10:59:22;95185.50;;;2.41;100.00
10097;BME280;5087;42.662;23.466;2023-12-07T11:01:52;95192.47;;;2.47;100.00
10097;BME280;5087;42.662;23.466;2023-12-07T11:04:20;95197.81;;;2.47;100.00
10097;BME280;5087;42.662;23.466;2023-12-07T11:06:49;95181.47;;;2.44;100.00
10097;BME280;5087;42.662;23.466;2023-12-07T11:09:21;95181.75;;;2.37;100.00
10097;BME280;5087;42.662;23.466;2023-12-07T11:11:52;95193.50;;;2.51;100.00
10097;BME280;5087;42.662;23.466;2023-12-07T11:14:22;95199.97;;;2.45;100.00
10097;BME280;5087;42.662;23.466;2023-12-07T11:16:52;95203.19;;;2.47;100.00
10097;BME280;5087;42.662;23.466;2023-12-07T11:19:46;95198.91;;;2.26;100.00
10097;BME280;5087;42.662;23.466;2023-12-07T11:22:13;95201.59;;;2.26;100.00
10097;BME280;5087;42.662;23.466;2023-12-07T11:24:56;95195.13;;;2.21;100.00
10097;BME280;5087;42.662;23.466;2023-12-07T11:27:29;95194.59;;;2.04;100.00
10097;BME280;5087;42.662;23.466;2023-12-07T11:29:58;95177.47;;;1.95;100.00
10097;BME280;5087;42.662;23.466;2023-12-07T11:32:28;95188.16;;;2.00;100.00
10097;BME280;5087;42.662;23.466;2023-12-07T11:35:02;95194.59;;;1.99;100.00
10097;BME280;5087;42.662;23.466;2023-12-07T11:38:00;95184.94;;;1.93;100.00
10097;BME280;5087;42.662;23.466;2023-12-07T11:40:29;95199.94;;;1.94;100.00
10097;BME280;5087;42.662;23.466;2023-12-07T11:42:56;95137.28;;;1.64;100.00
10097;BME280;5087;42.662;23.466;2023-12-07T11:45:36;95145.84;;;1.71;100.00
10097;BME280;5087;42.662;23.466;2023-12-07T11:48:10;95181.22;;;2.09;100.00
10097;BME280;5087;42.662;23.466;2023-12-07T11:50:53;95184.97;;;2.03;100.00
10097;BME280;5087;42.662;23.466;2023-12-07T11:53:21;95186.81;;;1.92;100.00
10097;BME280;5087;42.662;23.466;2023-12-07T11:55:49;95143.13;;;1.50;100.00
10097;BME280;5087;42.662;23.466;2023-12-07T11:58:16;95185.22;;;1.96;100.00
10097;BME280;5087;42.662;23.466;2023-12-07T12:00:44;95177.97;;;1.76;100.00
10097;BME280;5087;42.662;23.466;2023-12-07T12:03:14;95180.66;;;1.92;100.00
10097;BME280;5087;42.662;23.466;2023-12-07T12:05:41;95181.72;;;1.90;100.00
10097;BME280;5087;42.662;23.466;2023-12-07T12:08:10;95184.94;;;1.93;100.00
10097;BME280;5087;42.662;23.466;2023-12-07T12:10:37;95172.09;;;1.89;100.00
10097;BME280;5087;42.662;23.466;2023-12-07T12:13:05;95182.56;;;2.07;100.00
10097;BME280;5087;42.662;23.466;2023-12-07T12:15:32;95172.09;;;1.89;100.00
10097;BME280;5087;42.662;23.466;2023-12-07T12:18:00;95183.88;;;1.83;100.00
10097;BME280;5087;42.662;23.466;2023-12-07T12:20:29;95177.72;;;1.93;100.00
10097;BME280;5087;42.662;23.466;2023-12-07T12:22:57;95189.50;;;1.87;100.00
10097;BME280;5087;42.662;23.466;2023-12-07T12:25:26;95146.66;;;1.66;100.00
10097;BME280;5087;42.662;23.466;2023-12-07T12:27:54;95173.69;;;1.80;100.00
10097;BME280;5087;42.662;23.466;2023-12-07T12:30:22;95133.50;;;1.39;100.00
10097;BME280;5087;42.662;23.466;2023-12-07T12:32:53;95189.50;;;1.87;100.00
10097;BME280;5087;42.662;23.466;2023-12-07T12:35:20;95190.00;;;1.79;100.00
10097;BME280;5087;42.662;23.466;2023-12-07T12:37:49;95171.28;;;1.68;100.00
10097;BME280;5087;42.662;23.466;2023-12-07T12:40:18;95181.19;;;1.83;100.00
10097;BME280;5087;42.662;23.466;2023-12-07T12:42:46;95179.81;;;1.65;100.00
10097;BME280;5087;42.662;23.466;2023-12-07T12:45:14;95166.97;;;1.62;100.00
10097;BME280;5087;42.662;23.466;2023-12-07T12:47:42;95172.06;;;1.64;100.00
10097;BME280;5087;42.662;23.466;2023-12-07T12:50:11;95200.75;;;1.84;100.00
10097;BME280;5087;42.662;23.466;2023-12-07T12:52:40;95196.66;;;1.66;100.00
10097;BME280;5087;42.662;23.466;2023-12-07T12:55:10;95199.06;;;1.62;100.00
10097;BME280;5087;42.662;23.466;2023-12-07T12:57:37;95194.50;;;1.52;100.00
10097;BME280;5087;42.662;23.466;2023-12-07T13:00:06;95204.69;;;1.66;100.00
10097;BME280;5087;42.662;23.466;2023-12-07T13:02:33;95197.22;;;1.63;100.00
10097;BME280;5087;42.662;23.466;2023-12-07T13:05:01;95124.88;;;1.11;100.00
10097;BME280;5087;42.662;23.466;2023-12-07T13:07:32;95196.38;;;1.52;100.00
10097;BME280;5087;42.662;23.466;2023-12-07T13:10:01;95213.78;;;1.60;100.00
10097;BME280;5087;42.662;23.466;2023-12-07T13:12:30;95162.81;;;1.08;100.00
10097;BME280;5087;42.662;23.466;2023-12-07T13:15:01;95214.84;;;1.48;100.00